sensor_id;sensor_type;location;lat;lon;timestamp;temperature;humidity
19389;DHT22;9830;41.876;23.474;2022-09-09T00:04:38;12.60;99.90
19389;DHT22;9830;41.876;23.474;2022-09-09T00:10:43;12.50;99.90
19389;DHT22;9830;41.876;23.474;2022-09-09T00:15:53;12.40;99.90
19389;DHT22;9830;41.876;23.474;2022-09-09T00:18:31;12.40;99.90
19389;DHT22;9830;41.876;23.474;2022-09-09T00:21:14;12.50;99.90
19389;DHT22;9830;41.876;23.474;2022-09-09T00:23:48;12.50;99.90
19389;DHT22;9830;41.876;23.474;2022-09-09T00:26:47;12.50;99.90
19389;DHT22;9830;41.876;23.474;2022-09-09T00:29:43;12.40;99.90
19389;DHT22;9830;41.876;23.474;2022-09-09T00:32:18;12.50;99.90
19389;DHT22;9830;41.876;23.474;2022-09-09T00:35:02;12.30;99.90
19389;DHT22;9830;41.876;23.474;2022-09-09T00:37:28;12.10;99.90
19389;DHT22;9830;41.876;23.474;2022-09-09T00:39:59;12.10;99.90
19389;DHT22;9830;41.876;23.474;2022-09-09T00:42:41;12.10;99.90
19389;DHT22;9830;41.876;23.474;2022-09-09T00:58:16;12.20;99.90
19389;DHT22;9830;41.876;23.474;2022-09-09T01:00:43;12.20;99.90
19389;DHT22;9830;41.876;23.474;2022-09-09T01:17:05;11.90;99.90
19389;DHT22;9830;41.876;23.474;2022-09-09T01:19:49;11.90;99.90
19389;DHT22;9830;41.876;23.474;2022-09-09T01:27:48;11.90;99.90
19389;DHT22;9830;41.876;23.474;2022-09-09T01:30:17;11.80;99.90
19389;DHT22;9830;41.876;23.474;2022-09-09T01:32:49;11.60;99.90
19389;DHT22;9830;41.876;23.474;2022-09-09T01:37:59;11.60;99.90
19389;DHT22;9830;41.876;23.474;2022-09-09T01:40:25;11.40;99.90
19389;DHT22;9830;41.876;23.474;2022-09-09T01:42:52;11.40;99.90
19389;DHT22;9830;41.876;23.474;2022-09-09T01:45:18;11.50;99.90
19389;DHT22;9830;41.876;23.474;2022-09-09T01:47:45;11.60;99.90
19389;DHT22;9830;41.876;23.474;2022-09-09T01:50:14;11.70;99.90
19389;DHT22;9830;41.876;23.474;2022-09-09T01:52:40;11.70;99.90
19389;DHT22;9830;41.876;23.474;2022-09-09T01:55:07;11.70;99.90
19389;DHT22;9830;41.876;23.474;2022-09-09T01:57:40;11.70;99.90
19389;DHT22;9830;41.876;23.474;2022-09-09T02:00:10;11.80;99.90
19389;DHT22;9830;41.876;23.474;2022-09-09T02:05:41;11.60;99.90
19389;DHT22;9830;41.876;23.474;2022-09-09T02:08:11;11.50;99.90
19389;DHT22;9830;41.876;23.474;2022-09-09T02:11:02;11.50;99.90
19389;DHT22;9830;41.876;23.474;2022-09-09T02:13:29;11.60;99.90
19389;DHT22;9830;41.876;23.474;2022-09-09T02:18:37;11.60;99.90
19389;DHT22;9830;41.876;23.474;2022-09-09T02:21:05;11.50;99.90
19389;DHT22;9830;41.876;23.474;2022-09-09T02:23:33;11.40;99.90
19389;DHT22;9830;41.876;23.474;2022-09-09T02:26:00;11.30;99.90
19389;DHT22;9830;41.876;23.474;2022-09-09T02:28:30;11.20;99.90
19389;DHT22;9830;41.876;23.474;2022-09-09T02:30:57;11.20;99.90
19389;DHT22;9830;41.876;23.474;2022-09-09T02:33:27;11.20;99.90
19389;DHT22;9830;41.876;23.474;2022-09-09T02:35:54;11.30;99.90
19389;DHT22;9830;41.876;23.474;2022-09-09T02:38:25;11.40;99.90
19389;DHT22;9830;41.876;23.474;2022-09-09T02:40:51;11.40;99.90
19389;DHT22;9830;41.876;23.474;2022-09-09T02:43:17;11.50;99.90
19389;DHT22;9830;41.876;23.474;2022-09-09T02:52:06;11.50;99.90
19389;DHT22;9830;41.876;23.474;2022-09-09T02:54:33;11.30;99.90
19389;DHT22;9830;41.876;23.474;2022-09-09T02:57:11;11.20;99.90
19389;DHT22;9830;41.876;23.474;2022-09-09T02:59:38;11.30;99.90
19389;DHT22;9830;41.876;23.474;2022-09-09T03:02:03;11.40;99.90
19389;DHT22;9830;41.876;23.474;2022-09-09T03:04:29;11.40;99.90
19389;DHT22;9830;41.876;23.474;2022-09-09T03:06:57;11.50;99.90
19389;DHT22;9830;41.876;23.474;2022-09-09T03:09:23;11.50;99.90
19389;DHT22;9830;41.876;23.474;2022-09-09T03:11:49;11.50;99.90
19389;DHT22;9830;41.876;23.474;2022-09-09T03:14:15;11.60;99.90
19389;DHT22;9830;41.876;23.474;2022-09-09T03:16:42;11.60;99.90
19389;DHT22;9830;41.876;23.474;2022-09-09T03:19:11;11.60;99.90
19389;DHT22;9830;41.876;23.474;2022-09-09T03:21:37;11.50;99.90
19389;DHT22;9830;41.876;23.474;2022-09-09T03:24:02;11.50;99.90
19389;DHT22;9830;41.876;23.474;2022-09-09T03:26:29;11.40;99.90
19389;DHT22;9830;41.876;23.474;2022-09-09T03:28:56;11.40;99.90
19389;DHT22;9830;41.876;23.474;2022-09-09T03:31:21;11.30;99.90
19389;DHT22;9830;41.876;23.474;2022-09-09T03:33:47;11.30;99.90
19389;DHT22;9830;41.876;23.474;2022-09-09T03:36:14;11.30;99.90
19389;DHT22;9830;41.876;23.474;2022-09-09T03:38:40;11.40;99.90
19389;DHT22;9830;41.876;23.474;2022-09-09T03:41:06;11.40;99.90
19389;DHT22;9830;41.876;23.474;2022-09-09T03:43:33;11.40;99.90
19389;DHT22;9830;41.876;23.474;2022-09-09T03:45:59;11.40;99.90
19389;DHT22;9830;41.876;23.474;2022-09-09T03:48:26;11.30;99.90
19389;DHT22;9830;41.876;23.474;2022-09-09T03:50:54;11.40;99.90
19389;DHT22;9830;41.876;23.474;2022-09-09T03:53:22;11.40;99.90
19389;DHT22;9830;41.876;23.474;2022-09-09T03:55:51;11.30;99.90
19389;DHT22;9830;41.876;23.474;2022-09-09T03:58:21;11.50;99.90
19389;DHT22;9830;41.876;23.474;2022-09-09T04:00:56;11.60;99.90
19389;DHT22;9830;41.876;23.474;2022-09-09T04:03:23;11.80;99.90
19389;DHT22;9830;41.876;23.474;2022-09-09T04:05:53;12.00;99.90
19389;DHT22;9830;41.876;23.474;2022-09-09T04:08:20;12.20;99.90
19389;DHT22;9830;41.876;23.474;2022-09-09T04:10:49;12.10;99.90
19389;DHT22;9830;41.876;23.474;2022-09-09T04:13:16;12.00;99.90
19389;DHT22;9830;41.876;23.474;2022-09-09T04:15:56;11.90;99.90
19389;DHT22;9830;41.876;23.474;2022-09-09T04:18:22;12.00;99.90
19389;DHT22;9830;41.876;23.474;2022-09-09T04:20:50;12.10;99.90
19389;DHT22;9830;41.876;23.474;2022-09-09T04:23:16;12.20;99.90
19389;DHT22;9830;41.876;23.474;2022-09-09T04:25:54;12.20;99.90
19389;DHT22;9830;41.876;23.474;2022-09-09T04:28:22;12.30;99.90
19389;DHT22;9830;41.876;23.474;2022-09-09T04:30:48;12.20;99.90
19389;DHT22;9830;41.876;23.474;2022-09-09T04:33:14;12.30;99.90
19389;DHT22;9830;41.876;23.474;2022-09-09T04:35:45;12.50;99.90
19389;DHT22;9830;41.876;23.474;2022-09-09T04:38:12;12.80;99.90
19389;DHT22;9830;41.876;23.474;2022-09-09T04:40:37;12.90;99.90
19389;DHT22;9830;41.876;23.474;2022-09-09T04:43:07;13.00;99.90
19389;DHT22;9830;41.876;23.474;2022-09-09T04:45:33;13.10;99.90
19389;DHT22;9830;41.876;23.474;2022-09-09T04:47:59;13.00;99.90
19389;DHT22;9830;41.876;23.474;2022-09-09T04:50:24;13.00;99.90
19389;DHT22;9830;41.876;23.474;2022-09-09T04:52:51;13.00;99.90
19389;DHT22;9830;41.876;23.474;2022-09-09T04:55:16;13.30;99.90
19389;DHT22;9830;41.876;23.474;2022-09-09T04:57:42;13.30;99.90
19389;DHT22;9830;41.876;23.474;2022-09-09T05:00:09;13.30;99.90
19389;DHT22;9830;41.876;23.474;2022-09-09T05:02:39;13.40;99.90
19389;DHT22;9830;41.876;23.474;2022-09-09T05:05:06;13.70;99.90
19389;DHT22;9830;41.876;23.474;2022-09-09T05:07:32;13.70;99.90
19389;DHT22;9830;41.876;23.474;2022-09-09T05:09:57;14.00;99.90
19389;DHT22;9830;41.876;23.474;2022-09-09T05:12:23;13.80;99.90
19389;DHT22;9830;41.876;23.474;2022-09-09T05:14:51;13.80;99.90
19389;DHT22;9830;41.876;23.474;2022-09-09T05:17:17;13.70;99.90
19389;DHT22;9830;41.876;23.474;2022-09-09T05:19:43;13.60;99.90
19389;DHT22;9830;41.876;23.474;2022-09-09T05:22:10;13.50;99.90
19389;DHT22;9830;41.876;23.474;2022-09-09T05:24:37;13.60;99.90
19389;DHT22;9830;41.876;23.474;2022-09-09T05:27:04;13.90;99.90
19389;DHT22;9830;41.876;23.474;2022-09-09T05:29:31;14.00;99.90
19389;DHT22;9830;41.876;23.474;2022-09-09T05:31:59;14.10;99.90
19389;DHT22;9830;41.876;23.474;2022-09-09T05:34:24;14.40;99.90
19389;DHT22;9830;41.876;23.474;2022-09-09T05:36:50;14.90;99.90
19389;DHT22;9830;41.876;23.474;2022-09-09T05:39:17;14.90;99.90
19389;DHT22;9830;41.876;23.474;2022-09-09T05:41:43;15.30;99.90
19389;DHT22;9830;41.876;23.474;2022-09-09T05:44:08;15.80;99.90
19389;DHT22;9830;41.876;23.474;2022-09-09T05:46:34;15.70;99.90
19389;DHT22;9830;41.876;23.474;2022-09-09T05:49:00;15.70;99.90
19389;DHT22;9830;41.876;23.474;2022-09-09T05:51:28;15.70;99.90
19389;DHT22;9830;41.876;23.474;2022-09-09T05:53:55;15.60;99.90
19389;DHT22;9830;41.876;23.474;2022-09-09T05:56:25;15.30;99.90
19389;DHT22;9830;41.876;23.474;2022-09-09T05:58:53;15.20;99.90
19389;DHT22;9830;41.876;23.474;2022-09-09T06:01:25;14.90;99.90
19389;DHT22;9830;41.876;23.474;2022-09-09T06:03:54;15.20;99.90
19389;DHT22;9830;41.876;23.474;2022-09-09T06:06:26;15.20;99.90
19389;DHT22;9830;41.876;23.474;2022-09-09T06:08:53;15.50;99.90
19389;DHT22;9830;41.876;23.474;2022-09-09T06:11:20;15.60;99.90
19389;DHT22;9830;41.876;23.474;2022-09-09T06:13:47;15.60;99.90
19389;DHT22;9830;41.876;23.474;2022-09-09T06:16:17;15.80;99.90
19389;DHT22;9830;41.876;23.474;2022-09-09T06:18:43;16.40;99.90
19389;DHT22;9830;41.876;23.474;2022-09-09T06:21:21;16.70;99.90
19389;DHT22;9830;41.876;23.474;2022-09-09T06:23:47;16.80;99.90
19389;DHT22;9830;41.876;23.474;2022-09-09T06:26:19;17.30;99.90
19389;DHT22;9830;41.876;23.474;2022-09-09T06:28:47;17.70;99.90
19389;DHT22;9830;41.876;23.474;2022-09-09T06:31:15;17.90;99.90
19389;DHT22;9830;41.876;23.474;2022-09-09T06:33:47;18.60;99.90
19389;DHT22;9830;41.876;23.474;2022-09-09T06:36:15;18.90;99.90
19389;DHT22;9830;41.876;23.474;2022-09-09T06:38:42;19.30;99.90
19389;DHT22;9830;41.876;23.474;2022-09-09T06:41:09;19.90;98.10
19389;DHT22;9830;41.876;23.474;2022-09-09T06:43:35;21.50;94.10
19389;DHT22;9830;41.876;23.474;2022-09-09T06:46:19;23.10;87.70
19389;DHT22;9830;41.876;23.474;2022-09-09T06:48:45;23.60;83.30
19389;DHT22;9830;41.876;23.474;2022-09-09T06:53:41;25.30;70.10
19389;DHT22;9830;41.876;23.474;2022-09-09T06:58:40;26.30;66.80
19389;DHT22;9830;41.876;23.474;2022-09-09T07:01:14;26.80;64.20
19389;DHT22;9830;41.876;23.474;2022-09-09T07:03:40;27.20;60.10
19389;DHT22;9830;41.876;23.474;2022-09-09T07:06:12;28.00;58.30
19389;DHT22;9830;41.876;23.474;2022-09-09T07:08:40;28.80;54.00
19389;DHT22;9830;41.876;23.474;2022-09-09T07:11:07;27.90;54.60
19389;DHT22;9830;41.876;23.474;2022-09-09T07:13:33;26.00;59.90
19389;DHT22;9830;41.876;23.474;2022-09-09T07:16:07;25.30;66.10
19389;DHT22;9830;41.876;23.474;2022-09-09T07:18:33;26.60;62.70
19389;DHT22;9830;41.876;23.474;2022-09-09T07:21:00;26.90;61.60
19389;DHT22;9830;41.876;23.474;2022-09-09T07:23:26;27.60;59.60
19389;DHT22;9830;41.876;23.474;2022-09-09T07:25:52;27.70;57.80
19389;DHT22;9830;41.876;23.474;2022-09-09T07:28:19;28.20;57.00
19389;DHT22;9830;41.876;23.474;2022-09-09T07:30:53;29.70;54.50
19389;DHT22;9830;41.876;23.474;2022-09-09T07:33:19;30.60;51.70
19389;DHT22;9830;41.876;23.474;2022-09-09T07:35:45;31.70;48.40
19389;DHT22;9830;41.876;23.474;2022-09-09T07:38:11;30.70;49.00
19389;DHT22;9830;41.876;23.474;2022-09-09T07:40:37;31.70;45.80
19389;DHT22;9830;41.876;23.474;2022-09-09T07:43:02;32.10;45.80
19389;DHT22;9830;41.876;23.474;2022-09-09T07:45:28;32.00;45.90
19389;DHT22;9830;41.876;23.474;2022-09-09T07:47:54;31.90;45.40
19389;DHT22;9830;41.876;23.474;2022-09-09T07:50:22;31.00;47.60
19389;DHT22;9830;41.876;23.474;2022-09-09T07:52:50;31.80;46.30
19389;DHT22;9830;41.876;23.474;2022-09-09T07:55:15;31.30;46.80
19389;DHT22;9830;41.876;23.474;2022-09-09T07:57:41;32.30;46.10
19389;DHT22;9830;41.876;23.474;2022-09-09T08:00:07;33.20;44.20
19389;DHT22;9830;41.876;23.474;2022-09-09T08:02:33;33.70;42.70
19389;DHT22;9830;41.876;23.474;2022-09-09T08:04:59;33.10;43.00
19389;DHT22;9830;41.876;23.474;2022-09-09T08:07:24;31.70;44.80
19389;DHT22;9830;41.876;23.474;2022-09-09T08:09:51;31.70;44.90
19389;DHT22;9830;41.876;23.474;2022-09-09T08:12:17;32.60;45.20
19389;DHT22;9830;41.876;23.474;2022-09-09T08:14:43;32.50;44.50
19389;DHT22;9830;41.876;23.474;2022-09-09T08:17:09;31.90;44.60
19389;DHT22;9830;41.876;23.474;2022-09-09T08:19:35;31.70;45.60
19389;DHT22;9830;41.876;23.474;2022-09-09T08:22:02;30.70;48.20
19389;DHT22;9830;41.876;23.474;2022-09-09T08:24:28;30.60;47.40
19389;DHT22;9830;41.876;23.474;2022-09-09T08:26:54;30.70;47.50
19389;DHT22;9830;41.876;23.474;2022-09-09T08:29:20;32.40;44.80
19389;DHT22;9830;41.876;23.474;2022-09-09T08:31:48;33.50;42.60
19389;DHT22;9830;41.876;23.474;2022-09-09T08:34:15;33.30;42.10
19389;DHT22;9830;41.876;23.474;2022-09-09T08:36:44;32.50;42.90
19389;DHT22;9830;41.876;23.474;2022-09-09T08:39:12;33.10;41.90
19389;DHT22;9830;41.876;23.474;2022-09-09T08:42:05;32.70;43.40
19389;DHT22;9830;41.876;23.474;2022-09-09T08:47:17;34.10;41.60
19389;DHT22;9830;41.876;23.474;2022-09-09T08:58:12;33.50;42.10
19389;DHT22;9830;41.876;23.474;2022-09-09T09:00:54;34.90;39.40
19389;DHT22;9830;41.876;23.474;2022-09-09T09:09:27;33.10;42.70
19389;DHT22;9830;41.876;23.474;2022-09-09T09:11:58;32.70;43.70
19389;DHT22;9830;41.876;23.474;2022-09-09T09:14:29;32.90;43.50
19389;DHT22;9830;41.876;23.474;2022-09-09T09:17:06;33.50;43.40
19389;DHT22;9830;41.876;23.474;2022-09-09T09:19:35;33.10;43.60
19389;DHT22;9830;41.876;23.474;2022-09-09T09:22:22;33.60;42.80
19389;DHT22;9830;41.876;23.474;2022-09-09T09:30:17;33.30;43.00
19389;DHT22;9830;41.876;23.474;2022-09-09T09:32:56;33.60;43.20
19389;DHT22;9830;41.876;23.474;2022-09-09T09:35:24;33.90;43.00
19389;DHT22;9830;41.876;23.474;2022-09-09T09:37:49;34.30;41.10
19389;DHT22;9830;41.876;23.474;2022-09-09T09:40:21;33.90;41.80
19389;DHT22;9830;41.876;23.474;2022-09-09T09:42:56;33.70;43.40
19389;DHT22;9830;41.876;23.474;2022-09-09T09:45:34;33.70;43.00
19389;DHT22;9830;41.876;23.474;2022-09-09T09:48:04;33.00;44.10
19389;DHT22;9830;41.876;23.474;2022-09-09T09:50:31;33.20;44.10
19389;DHT22;9830;41.876;23.474;2022-09-09T09:53:00;32.80;45.30
19389;DHT22;9830;41.876;23.474;2022-09-09T09:55:28;32.70;45.80
19389;DHT22;9830;41.876;23.474;2022-09-09T09:58:13;32.10;45.90
19389;DHT22;9830;41.876;23.474;2022-09-09T10:00:51;31.40;47.00
19389;DHT22;9830;41.876;23.474;2022-09-09T10:03:28;30.40;48.80
19389;DHT22;9830;41.876;23.474;2022-09-09T10:05:54;30.20;49.30
19389;DHT22;9830;41.876;23.474;2022-09-09T10:08:22;30.30;50.30
19389;DHT22;9830;41.876;23.474;2022-09-09T10:11:14;30.10;50.00
19389;DHT22;9830;41.876;23.474;2022-09-09T10:19:10;28.90;53.80
19389;DHT22;9830;41.876;23.474;2022-09-09T10:22:16;28.50;54.90
19389;DHT22;9830;41.876;23.474;2022-09-09T10:25:02;28.40;55.60
19389;DHT22;9830;41.876;23.474;2022-09-09T10:31:07;28.60;55.40
19389;DHT22;9830;41.876;23.474;2022-09-09T10:36:28;29.10;56.30
19389;DHT22;9830;41.876;23.474;2022-09-09T10:39:11;29.50;53.20
19389;DHT22;9830;41.876;23.474;2022-09-09T10:53:24;28.60;54.80
19389;DHT22;9830;41.876;23.474;2022-09-09T10:55:59;29.00;54.40
19389;DHT22;9830;41.876;23.474;2022-09-09T11:01:32;29.50;51.40
19389;DHT22;9830;41.876;23.474;2022-09-09T11:04:38;29.40;52.50
19389;DHT22;9830;41.876;23.474;2022-09-09T11:06:58;29.70;52.20
19389;DHT22;9830;41.876;23.474;2022-09-09T11:09:33;29.90;53.40
19389;DHT22;9830;41.876;23.474;2022-09-09T11:12:02;29.80;51.70
19389;DHT22;9830;41.876;23.474;2022-09-09T11:14:39;30.20;52.40
19389;DHT22;9830;41.876;23.474;2022-09-09T11:17:12;30.40;50.60
19389;DHT22;9830;41.876;23.474;2022-09-09T11:19:40;30.50;50.60
19389;DHT22;9830;41.876;23.474;2022-09-09T11:22:22;30.50;49.20
19389;DHT22;9830;41.876;23.474;2022-09-09T11:31:04;30.70;48.80
19389;DHT22;9830;41.876;23.474;2022-09-09T11:41:35;31.10;49.70
19389;DHT22;9830;41.876;23.474;2022-09-09T11:44:17;31.10;49.60
19389;DHT22;9830;41.876;23.474;2022-09-09T11:46:45;31.00;48.80
19389;DHT22;9830;41.876;23.474;2022-09-09T11:49:30;30.90;48.60
19389;DHT22;9830;41.876;23.474;2022-09-09T11:54:48;30.80;49.60
19389;DHT22;9830;41.876;23.474;2022-09-09T11:57:35;30.50;50.10
19389;DHT22;9830;41.876;23.474;2022-09-09T12:00:01;30.30;50.70
19389;DHT22;9830;41.876;23.474;2022-09-09T12:02:28;30.10;51.00
19389;DHT22;9830;41.876;23.474;2022-09-09T12:05:09;30.00;51.60
19389;DHT22;9830;41.876;23.474;2022-09-09T12:07:56;30.40;50.20
19389;DHT22;9830;41.876;23.474;2022-09-09T12:10:26;30.30;49.70
19389;DHT22;9830;41.876;23.474;2022-09-09T12:12:52;30.30;49.80
19389;DHT22;9830;41.876;23.474;2022-09-09T12:15:28;30.00;51.00
19389;DHT22;9830;41.876;23.474;2022-09-09T12:17:57;30.10;51.00
19389;DHT22;9830;41.876;23.474;2022-09-09T12:20:51;29.90;52.40
19389;DHT22;9830;41.876;23.474;2022-09-09T12:28:31;30.00;48.20
19389;DHT22;9830;41.876;23.474;2022-09-09T12:33:47;30.20;49.80
19389;DHT22;9830;41.876;23.474;2022-09-09T12:36:19;30.20;48.40
19389;DHT22;9830;41.876;23.474;2022-09-09T12:38:47;30.30;48.70
19389;DHT22;9830;41.876;23.474;2022-09-09T12:41:27;30.20;47.10
19389;DHT22;9830;41.876;23.474;2022-09-09T12:44:04;30.30;46.10
19389;DHT22;9830;41.876;23.474;2022-09-09T12:46:45;30.30;47.80
19389;DHT22;9830;41.876;23.474;2022-09-09T12:49:36;29.90;47.00
19389;DHT22;9830;41.876;23.474;2022-09-09T12:52:28;29.80;46.50
19389;DHT22;9830;41.876;23.474;2022-09-09T12:54:56;29.80;49.60
19389;DHT22;9830;41.876;23.474;2022-09-09T12:57:23;30.00;50.20
19389;DHT22;9830;41.876;23.474;2022-09-09T12:59:51;29.90;50.70
19389;DHT22;9830;41.876;23.474;2022-09-09T13:02:24;29.90;50.90
19389;DHT22;9830;41.876;23.474;2022-09-09T13:04:51;29.90;51.30
19389;DHT22;9830;41.876;23.474;2022-09-09T13:07:21;29.50;49.90
19389;DHT22;9830;41.876;23.474;2022-09-09T13:09:48;29.20;51.50
19389;DHT22;9830;41.876;23.474;2022-09-09T13:12:19;29.30;52.20
19389;DHT22;9830;41.876;23.474;2022-09-09T13:14:56;29.50;50.90
19389;DHT22;9830;41.876;23.474;2022-09-09T13:17:26;29.60;50.50
19389;DHT22;9830;41.876;23.474;2022-09-09T13:19:56;29.20;51.30
19389;DHT22;9830;41.876;23.474;2022-09-09T13:22:35;29.60;50.10
19389;DHT22;9830;41.876;23.474;2022-09-09T13:25:13;29.50;50.50
19389;DHT22;9830;41.876;23.474;2022-09-09T13:27:53;29.40;50.60
19389;DHT22;9830;41.876;23.474;2022-09-09T13:38:15;29.00;55.80
19389;DHT22;9830;41.876;23.474;2022-09-09T13:43:34;29.00;53.90
19389;DHT22;9830;41.876;23.474;2022-09-09T13:46:03;29.00;54.60
19389;DHT22;9830;41.876;23.474;2022-09-09T13:48:29;29.00;55.50
19389;DHT22;9830;41.876;23.474;2022-09-09T13:50:58;28.70;54.80
19389;DHT22;9830;41.876;23.474;2022-09-09T13:53:24;28.40;55.40
19389;DHT22;9830;41.876;23.474;2022-09-09T13:55:50;28.30;55.60
19389;DHT22;9830;41.876;23.474;2022-09-09T13:58:17;28.00;57.20
19389;DHT22;9830;41.876;23.474;2022-09-09T14:00:44;27.80;57.60
19389;DHT22;9830;41.876;23.474;2022-09-09T14:03:10;27.40;58.10
19389;DHT22;9830;41.876;23.474;2022-09-09T14:05:36;27.10;58.90
19389;DHT22;9830;41.876;23.474;2022-09-09T14:08:06;26.90;58.60
19389;DHT22;9830;41.876;23.474;2022-09-09T14:10:33;26.50;59.40
19389;DHT22;9830;41.876;23.474;2022-09-09T14:13:03;26.30;60.10
19389;DHT22;9830;41.876;23.474;2022-09-09T14:15:28;26.20;61.00
19389;DHT22;9830;41.876;23.474;2022-09-09T14:17:54;26.10;59.20
19389;DHT22;9830;41.876;23.474;2022-09-09T14:20:20;26.20;61.80
19389;DHT22;9830;41.876;23.474;2022-09-09T14:22:46;26.20;63.40
19389;DHT22;9830;41.876;23.474;2022-09-09T14:25:12;26.40;63.80
19389;DHT22;9830;41.876;23.474;2022-09-09T14:27:41;26.40;63.70
19389;DHT22;9830;41.876;23.474;2022-09-09T14:30:08;26.40;58.30
19389;DHT22;9830;41.876;23.474;2022-09-09T14:32:34;26.40;64.10
19389;DHT22;9830;41.876;23.474;2022-09-09T14:35:00;26.40;64.40
19389;DHT22;9830;41.876;23.474;2022-09-09T14:37:27;26.20;64.70
19389;DHT22;9830;41.876;23.474;2022-09-09T14:39:52;26.20;65.80
19389;DHT22;9830;41.876;23.474;2022-09-09T14:42:19;26.00;58.00
19389;DHT22;9830;41.876;23.474;2022-09-09T14:44:45;26.00;60.50
19389;DHT22;9830;41.876;23.474;2022-09-09T14:47:10;25.80;62.50
19389;DHT22;9830;41.876;23.474;2022-09-09T14:49:36;25.70;62.30
19389;DHT22;9830;41.876;23.474;2022-09-09T14:52:04;25.50;65.70
19389;DHT22;9830;41.876;23.474;2022-09-09T14:54:30;25.30;68.10
19389;DHT22;9830;41.876;23.474;2022-09-09T14:56:56;25.30;70.10
19389;DHT22;9830;41.876;23.474;2022-09-09T14:59:23;25.20;71.60
19389;DHT22;9830;41.876;23.474;2022-09-09T15:01:48;25.20;73.60
19389;DHT22;9830;41.876;23.474;2022-09-09T15:04:14;25.20;74.10
19389;DHT22;9830;41.876;23.474;2022-09-09T15:06:40;25.30;73.10
19389;DHT22;9830;41.876;23.474;2022-09-09T15:09:08;25.30;73.30
19389;DHT22;9830;41.876;23.474;2022-09-09T15:11:36;25.50;74.20
19389;DHT22;9830;41.876;23.474;2022-09-09T15:14:05;25.70;73.50
19389;DHT22;9830;41.876;23.474;2022-09-09T15:16:31;25.90;72.50
19389;DHT22;9830;41.876;23.474;2022-09-09T15:18:59;26.10;69.40
19389;DHT22;9830;41.876;23.474;2022-09-09T15:21:34;26.30;67.00
19389;DHT22;9830;41.876;23.474;2022-09-09T15:24:00;26.50;63.90
19389;DHT22;9830;41.876;23.474;2022-09-09T15:26:27;26.70;62.80
19389;DHT22;9830;41.876;23.474;2022-09-09T15:28:53;26.70;61.10
19389;DHT22;9830;41.876;23.474;2022-09-09T15:31:22;26.60;61.40
19389;DHT22;9830;41.876;23.474;2022-09-09T15:36:19;26.20;64.10
19389;DHT22;9830;41.876;23.474;2022-09-09T15:38:45;26.00;65.10
19389;DHT22;9830;41.876;23.474;2022-09-09T15:41:12;25.80;67.30
19389;DHT22;9830;41.876;23.474;2022-09-09T15:43:42;25.70;68.40
19389;DHT22;9830;41.876;23.474;2022-09-09T15:48:43;25.40;69.60
19389;DHT22;9830;41.876;23.474;2022-09-09T15:51:10;25.30;70.30
19389;DHT22;9830;41.876;23.474;2022-09-09T15:53:38;25.10;71.10
19389;DHT22;9830;41.876;23.474;2022-09-09T15:56:08;25.00;71.60
19389;DHT22;9830;41.876;23.474;2022-09-09T15:58:34;24.90;72.50
19389;DHT22;9830;41.876;23.474;2022-09-09T16:01:08;24.70;74.20
19389;DHT22;9830;41.876;23.474;2022-09-09T16:03:35;24.60;75.00
19389;DHT22;9830;41.876;23.474;2022-09-09T16:06:03;24.50;75.10
19389;DHT22;9830;41.876;23.474;2022-09-09T16:08:34;24.30;76.10
19389;DHT22;9830;41.876;23.474;2022-09-09T16:11:14;24.20;76.40
19389;DHT22;9830;41.876;23.474;2022-09-09T16:13:42;24.00;77.10
19389;DHT22;9830;41.876;23.474;2022-09-09T16:16:10;23.90;77.60
19389;DHT22;9830;41.876;23.474;2022-09-09T16:18:39;23.80;78.20
19389;DHT22;9830;41.876;23.474;2022-09-09T16:21:05;23.70;77.70
19389;DHT22;9830;41.876;23.474;2022-09-09T16:23:32;23.60;79.30
19389;DHT22;9830;41.876;23.474;2022-09-09T16:25:58;23.60;81.10
19389;DHT22;9830;41.876;23.474;2022-09-09T16:28:24;23.50;81.70
19389;DHT22;9830;41.876;23.474;2022-09-09T16:30:49;23.40;82.50
19389;DHT22;9830;41.876;23.474;2022-09-09T16:33:16;23.30;84.10
19389;DHT22;9830;41.876;23.474;2022-09-09T16:35:42;23.20;85.30
19389;DHT22;9830;41.876;23.474;2022-09-09T16:38:08;23.10;86.20
19389;DHT22;9830;41.876;23.474;2022-09-09T16:40:34;23.00;87.40
19389;DHT22;9830;41.876;23.474;2022-09-09T16:43:00;22.90;88.30
19389;DHT22;9830;41.876;23.474;2022-09-09T16:45:27;22.90;88.20
19389;DHT22;9830;41.876;23.474;2022-09-09T16:47:54;22.80;88.00
19389;DHT22;9830;41.876;23.474;2022-09-09T16:50:19;22.70;89.50
19389;DHT22;9830;41.876;23.474;2022-09-09T16:52:45;22.60;89.60
19389;DHT22;9830;41.876;23.474;2022-09-09T16:55:11;22.50;90.10
19389;DHT22;9830;41.876;23.474;2022-09-09T16:57:37;22.40;90.70
19389;DHT22;9830;41.876;23.474;2022-09-09T17:00:04;22.30;91.20
19389;DHT22;9830;41.876;23.474;2022-09-09T17:02:32;22.20;91.60
19389;DHT22;9830;41.876;23.474;2022-09-09T17:04:57;22.10;92.20
19389;DHT22;9830;41.876;23.474;2022-09-09T17:07:25;22.00;92.60
19389;DHT22;9830;41.876;23.474;2022-09-09T17:09:50;22.00;93.20
19389;DHT22;9830;41.876;23.474;2022-09-09T17:12:16;21.80;94.70
19389;DHT22;9830;41.876;23.474;2022-09-09T17:14:43;21.50;95.50
19389;DHT22;9830;41.876;23.474;2022-09-09T17:17:09;21.30;95.90
19389;DHT22;9830;41.876;23.474;2022-09-09T17:19:35;21.10;96.20
19389;DHT22;9830;41.876;23.474;2022-09-09T17:22:01;20.90;96.90
19389;DHT22;9830;41.876;23.474;2022-09-09T17:24:27;20.80;97.50
19389;DHT22;9830;41.876;23.474;2022-09-09T17:26:54;20.70;98.20
19389;DHT22;9830;41.876;23.474;2022-09-09T17:29:21;20.50;98.70
19389;DHT22;9830;41.876;23.474;2022-09-09T17:31:46;20.40;99.50
19389;DHT22;9830;41.876;23.474;2022-09-09T17:34:12;20.30;99.70
19389;DHT22;9830;41.876;23.474;2022-09-09T17:36:38;20.30;99.90
19389;DHT22;9830;41.876;23.474;2022-09-09T17:39:06;20.20;99.90
19389;DHT22;9830;41.876;23.474;2022-09-09T17:41:36;20.20;99.90
19389;DHT22;9830;41.876;23.474;2022-09-09T17:44:03;20.10;99.90
19389;DHT22;9830;41.876;23.474;2022-09-09T17:46:37;20.00;99.90
19389;DHT22;9830;41.876;23.474;2022-09-09T17:49:08;19.90;99.90
19389;DHT22;9830;41.876;23.474;2022-09-09T17:51:35;19.80;99.90
19389;DHT22;9830;41.876;23.474;2022-09-09T17:54:13;19.70;99.90
19389;DHT22;9830;41.876;23.474;2022-09-09T17:56:40;19.70;99.90
19389;DHT22;9830;41.876;23.474;2022-09-09T17:59:07;19.60;99.90
19389;DHT22;9830;41.876;23.474;2022-09-09T18:01:37;19.60;99.90
19389;DHT22;9830;41.876;23.474;2022-09-09T18:04:08;19.50;99.90
19389;DHT22;9830;41.876;23.474;2022-09-09T18:06:37;19.50;99.90
19389;DHT22;9830;41.876;23.474;2022-09-09T18:09:06;19.50;99.90
19389;DHT22;9830;41.876;23.474;2022-09-09T18:11:35;19.40;99.90
19389;DHT22;9830;41.876;23.474;2022-09-09T18:14:05;19.40;99.90
19389;DHT22;9830;41.876;23.474;2022-09-09T18:16:32;19.40;99.90